Baldur, Canada
Current Conditions -  °F | °C
As of 8:15 AM on Friday 19 Dec 2014 (Local Time) from K06D Reporting Station
Haze Haze  
Wind Chill: 23°   Ceiling: 200
Heat Index: 23°   Visibility: 1.2mi
Dew Point: 23°   Wind: 3mph
Humidity: 100%   Direction: 140°SE
Pressure: 29.95"   Gusts: NA
Location:  49.38°N, 99.23°W
Report Text: K06D 191415Z AUTO 14003KT 1 1/4SM BR OVC002 M05/M05 A2995 RMK AO2
Loading
Personal Weather Stations






























Interactive Weather Map New forecast layout! Learn more

10-Day Weather Forecast

Advertisements
Track Severe Weather on mobile